UTST

Termez Airport

Termez, Uzbekistan
TAF UTST 260500Z 2606/2706 VRB06KT 6000 NSC TEMPO 2608/2615 09008G18KT SCT050
Issued Valid From Valid To
Apr-26 @ 05:00 UTC
(an hour ago)
Apr-26 @ 06:00 UTC
(2 minutes ago)
Apr-27 @ 06:00 UTC
(in 24 hours)
Apr-26 @ 06:00 to Apr-27 @ 06:00
TAF UTST 260500Z 2606/2706 VRB06KT 6000 NSC
Wind Visibility Clouds
Variable at 6 knots 6,003 meters
  • No significant clouds
Temporary Apr-26 @ 08:00 to Apr-26 @ 15:00
TEMPO 2608/2615 09008G18KT SCT050
Wind Clouds
90° at 8 knots
 Gusting to 18 knots
  • Scattered at 5,000' AGL
TAF UTST 260500Z 2606/2706 VRB06KT 6000 NSC TEMPO 2608/2615 09008G18KT SCT050
Issued Apr-26 @ 05:00 UTC
(an hour ago)
Valid From Apr-26 @ 06:00 UTC
(2 minutes ago)
Valid To Apr-27 @ 06:00 UTC
(in 24 hours)
Apr-26 @ 06:00 - Apr-27 @ 06:00
Wind Visibility
Variable at 6 knots 6,003 meters
Clouds
  • No significant clouds
Temporary Apr-26 @ 08:00 - Apr-26 @ 15:00
Wind
90° at 8 knots
 Gusting to 18 knots
Clouds
  • Scattered at 5,000' AGL